默认 日期 大小 文件数 浏览量 最新下载 xml
conrad磁力链接相关资源由用户搜索指令自动获取,结果来源于网络,本站不存储任何资料,亦不承担任何责任,请于24小时内删除,搜索到1413个磁力,用时1ms。
    {"21743_01_720p.mp4": 428943161, "Torrent downloaded from PornLeech.me.nfo": 45, "Torrent downloaded from PornLeech.ru.nfo": 45, "Torrent downloaded from PornLeech.com.nfo": 46}
创建时间: 2019-10-24 19:37:56 大小:409.07 MB 文件数量:4 热度:8 最近下载:2025-04-02 16:55:03
    {"XTRA - .avi": 31453184, "XTRA- Unknown.avi": 83265536, "The Cabinet of Dr. Caligari (1919) Germany - Silent - Xvid 1cd - Conrad Veidt [DDR].avi": 734744576}
创建时间: 2019-10-26 18:51:04 大小:810.11 MB 文件数量:3 热度:4 最近下载:2025-04-01 07:40:03
    ... jpg": 198554}, "Lauren Conrad": {"Lauren Conrad.jpg": 1321396, "Lauren Conrad (1).jpg": 1168574 ... , "Lauren Conrad (2).jpg": 830149, "Lauren Conrad (3).jpg": 1271431 ... , "Lauren Conrad (4).jpg": 964659, "Lauren Conrad (5).jpg": 1287437 ...
创建时间: 2019-10-26 20:13:32 大小:18.46 MB 文件数量:29 热度:21 最近下载:2025-08-21 20:49:02
    {"Sample": {"ps.13.06.13.teal.conrad-sample.mp4": 23709080}, "RARBG.COM.url": 177, "RARBG.com.txt": 34, "RARBG.COM_DO_NOT_MIRROR.exe": 99, "ps.13.06.13.teal.conrad.mp4": 754999407, "ps.13.06.13.teal.conrad.nfo": 6968}
创建时间: 2019-10-28 03:13:50 大小:742.64 MB 文件数量:6 热度:4 最近下载:2022-11-12 12:33:05
    {"Sample": {"twist.13.03.07.teal.conrad.the.real.teal-sample.mp4": 83339364}, "RARBG.com.txt": 34, "twist.13.03.07.teal.conrad.the.real.teal.mp4": 798874555, "twist.13.03.07.teal.conrad.the.real.teal.nfo": 6977}
创建时间: 2019-10-28 09:40:56 大小:841.35 MB 文件数量:4 热度:7 最近下载:2022-11-12 09:55:08
    {"Sexy girlie action with Cassie Laine and Teal Conrad.mp4": 170514770}
创建时间: 2019-10-30 00:44:53 大小:162.62 MB 文件数量:1 热度:4 最近下载:2022-11-12 10:01:36
    {"metadata.opf": 3848, "audiobook-sample.mp3": 4799464, "free audiobook version.txt": 366, "Under Western Eyes - Joseph Conrad.epub": 269797}
创建时间: 2019-11-01 15:59:39 大小:4.84 MB 文件数量:4 热度:7 最近下载:2025-09-18 19:25:10
    {"cover.jpg": 188029, "tealconradts062112-v04_999.mp4": 771771310}
创建时间: 2019-11-04 17:35:39 大小:736.2 MB 文件数量:2 热度:4 最近下载:2022-11-15 20:15:57
    {"cover.jpg": 248734, "booklet.pdf": 4099104, "05 - Wolfe - Compassion.flac": 25957448, "Downloaded_from_Demonoid.is.txt": 58, "01 - Rzewski - Which Side Are You On.flac": 55513968, "03 - Copland - Piano Sonata - II. Vivace.flac": 16749742, "06 - Rzewski - ...
创建时间: 2019-11-07 18:16:43 大小:195.33 MB 文件数量:9 热度:6 最近下载:2025-08-04 10:02:16
    {"02 - Chapter 1.mp3": 31072567, "03 - Chapter 2.mp3": 19239357, "04 - Chapter 3.mp3": 24677005, "05 - Chapter 4.mp3": 14933361, "06 - Chapter 5.mp3": 21465913, "07 - Chapter 6.mp3": 26351231, "01 - Author's Note.mp3": 4581129}
创建时间: 2019-11-19 02:21:31 大小:135.73 MB 文件数量:7 热度:4 最近下载:2023-12-24 16:58:07
    {"RARBG.txt": 30, "RARBG_DO_NOT_MIRROR.exe": 99, "boxing.2019.11.09.danny.dignum.vs.conrad.cummings.ppv.web.h264-levitate.mkv": 611657447, "boxing.2019.11.09.danny.dignum.vs.conrad.cummings.ppv.web.h264-levitate.nfo": 511}
创建时间: 2019-11-20 23:55:04 大小:583.32 MB 文件数量:4 热度:4 最近下载:2023-12-24 21:52:04
    {"cover.jpg": 263802, "tealconradts051312-v01_999.mp4": 943666789}
创建时间: 2019-11-23 05:17:49 大小:900.2 MB 文件数量:2 热度:6 最近下载:2025-08-07 06:55:03
    {"The Bad Sister - Sample.mp4": 15412267, "The Bad Sister (1931)_Eng.srt": 69162, "The Bad Sister - Tech Sheet.jpg": 145789, "The Bad Sister (Drama 1931) Conrad Nagel, Sidney Fox & Bette Davis.mp4": 1009107623}
创建时间: 2019-11-23 16:19:49 大小:977.26 MB 文件数量:4 热度:9 最近下载:2025-09-11 21:22:06
    {"35181_Beauty_and_the_Creep_1080p_6000.mp4": 1395631185}
创建时间: 2019-12-01 21:52:42 大小:1.3 GB 文件数量:1 热度:9 最近下载:2024-10-30 08:59:02
    {"RARBG.com.txt": 34, "mfhg.14.04.28.teal.conrad.1080p.mp4": 2260814343, "mfhg.14.04.28.teal.conrad.1080p.nfo": 6982}
创建时间: 2019-12-02 01:13:43 大小:2.11 GB 文件数量:3 热度:24 最近下载:2025-09-14 22:19:04
    {"str2.jpg": 4021952, "str3.jpg": 2595104, "str4.jpg": 4207714, "str5.jpg": 1896106, "str7.jpg": 3764955, "szablon1.jpg": 4334877, "szablon2.jpg": 4653801, "szablon3.jpg": 4396434, "szablon4.jpg": 5540909, "szablon5.jpg": 3360299, "szablon6.jpg": 2064908, ...
创建时间: 2019-12-07 01:12:18 大小:55.31 MB 文件数量:15 热度:5 最近下载:2025-01-25 18:45:05
    ... m3u": 233, "04. MC Conrad - Cool Vertigo.mp3": 14460928, ... mp3": 15724544, "09. MC Conrad - Nadiresonance.mp3": 13324258, "01 ... mp3": 15208448, "02. MC Conrad - Energetic Poetry.mp3": 16670720, ... "06. MC Conrad - Strategies & Plans.mp3": 13830144 ...
创建时间: 2019-12-09 00:47:40 大小:254.66 MB 文件数量:21 热度:4 最近下载:2023-12-28 00:45:04
    {"01. Overview.mp4": 7408367, "02. Cleaning Up.mp4": 19370948, "09. Finishing up.mp4": 34023826, "courseupload.com.webloc": 248, "03. Color Correction.mp4": 18836907, "08. Skin Retouching - DB.mp4": 28669445, "05. Skin Retouching - Eyes.mp4": 47665159, "00 ...
创建时间: 2019-12-10 00:33:01 大小:211.35 MB 文件数量:11 热度:5 最近下载:2023-12-28 04:56:01
    {"Elitetorrent - Descargar Torrent sin Limites.url": 54, "Conrad y Michelle, Si Las Palabras Mataran (2019) 1080P LAT.mkv": 3605457396}
创建时间: 2019-12-20 12:53:57 大小:3.36 GB 文件数量:2 热度:6 最近下载:2025-02-04 14:31:04
    {"Conrad.e.Michelle.Se.Palavras.Matassem.2019.720p.WEB-DL.6CH.x264.DUAL-LAPUMiA.mkv": 2211659703, "Conrad.e.Michelle.Se.Palavras.Matassem.2019.720p.WEB-DL.6CH.x264.DUAL-LAPUMiA.srt": 82245}
创建时间: 2019-12-21 18:14:10 大小:2.06 GB 文件数量:2 热度:4 最近下载:2023-12-29 09:37:04